sensor_id;sensor_type;location;lat;lon;timestamp;P1;durP1;ratioP1;P2;durP2;ratioP2
4529;SDS011;2277;51.626;7.516;2023-05-07T00:00:33;5.83;;;4.17;;
4529;SDS011;2277;51.626;7.516;2023-05-07T00:02:59;5.90;;;3.80;;
4529;SDS011;2277;51.626;7.516;2023-05-07T00:05:25;3.70;;;3.40;;
4529;SDS011;2277;51.626;7.516;2023-05-07T00:07:51;7.30;;;5.03;;
4529;SDS011;2277;51.626;7.516;2023-05-07T00:10:17;7.10;;;4.10;;
4529;SDS011;2277;51.626;7.516;2023-05-07T00:12:43;7.23;;;3.73;;
4529;SDS011;2277;51.626;7.516;2023-05-07T00:15:09;3.27;;;2.97;;
4529;SDS011;2277;51.626;7.516;2023-05-07T00:17:35;4.50;;;3.27;;
4529;SDS011;2277;51.626;7.516;2023-05-07T00:20:01;3.77;;;3.37;;
4529;SDS011;2277;51.626;7.516;2023-05-07T00:22:28;3.40;;;2.97;;
4529;SDS011;2277;51.626;7.516;2023-05-07T00:24:55;6.87;;;3.43;;
4529;SDS011;2277;51.626;7.516;2023-05-07T00:27:20;6.97;;;3.30;;
4529;SDS011;2277;51.626;7.516;2023-05-07T00:29:46;3.77;;;3.47;;
4529;SDS011;2277;51.626;7.516;2023-05-07T00:32:12;7.33;;;6.30;;
4529;SDS011;2277;51.626;7.516;2023-05-07T00:34:38;3.53;;;3.23;;
4529;SDS011;2277;51.626;7.516;2023-05-07T00:37:04;4.30;;;3.43;;
4529;SDS011;2277;51.626;7.516;2023-05-07T00:39:32;6.63;;;3.87;;
4529;SDS011;2277;51.626;7.516;2023-05-07T00:41:58;2.60;;;2.40;;
4529;SDS011;2277;51.626;7.516;2023-05-07T00:44:24;3.60;;;3.27;;
4529;SDS011;2277;51.626;7.516;2023-05-07T00:46:50;7.53;;;3.60;;
4529;SDS011;2277;51.626;7.516;2023-05-07T00:49:16;5.40;;;3.40;;
4529;SDS011;2277;51.626;7.516;2023-05-07T00:51:42;4.17;;;3.10;;
4529;SDS011;2277;51.626;7.516;2023-05-07T00:54:08;5.13;;;4.70;;
4529;SDS011;2277;51.626;7.516;2023-05-07T00:56:34;4.30;;;3.90;;
4529;SDS011;2277;51.626;7.516;2023-05-07T00:59:01;5.70;;;3.80;;
4529;SDS011;2277;51.626;7.516;2023-05-07T01:01:27;10.20;;;3.97;;
4529;SDS011;2277;51.626;7.516;2023-05-07T01:03:53;4.20;;;3.13;;
4529;SDS011;2277;51.626;7.516;2023-05-07T01:06:19;7.90;;;4.23;;
4529;SDS011;2277;51.626;7.516;2023-05-07T01:08:46;3.37;;;2.43;;
4529;SDS011;2277;51.626;7.516;2023-05-07T01:11:13;4.83;;;2.77;;
4529;SDS011;2277;51.626;7.516;2023-05-07T01:13:39;3.97;;;3.47;;
4529;SDS011;2277;51.626;7.516;2023-05-07T01:16:06;7.20;;;3.40;;
4529;SDS011;2277;51.626;7.516;2023-05-07T01:18:33;3.53;;;2.90;;
4529;SDS011;2277;51.626;7.516;2023-05-07T01:20:59;6.30;;;3.10;;
4529;SDS011;2277;51.626;7.516;2023-05-07T01:23:28;4.07;;;3.00;;
4529;SDS011;2277;51.626;7.516;2023-05-07T01:25:55;8.00;;;3.30;;
4529;SDS011;2277;51.626;7.516;2023-05-07T01:28:21;5.67;;;3.50;;
4529;SDS011;2277;51.626;7.516;2023-05-07T01:30:49;4.40;;;3.17;;
4529;SDS011;2277;51.626;7.516;2023-05-07T01:33:18;4.93;;;3.90;;
4529;SDS011;2277;51.626;7.516;2023-05-07T01:35:47;3.93;;;3.50;;
4529;SDS011;2277;51.626;7.516;2023-05-07T01:38:16;5.63;;;4.30;;
4529;SDS011;2277;51.626;7.516;2023-05-07T01:40:43;4.10;;;3.40;;
4529;SDS011;2277;51.626;7.516;2023-05-07T01:43:08;5.60;;;3.60;;
4529;SDS011;2277;51.626;7.516;2023-05-07T01:45:35;4.50;;;4.10;;
4529;SDS011;2277;51.626;7.516;2023-05-07T01:48:01;5.23;;;4.70;;
4529;SDS011;2277;51.626;7.516;2023-05-07T01:50:27;7.87;;;5.73;;
4529;SDS011;2277;51.626;7.516;2023-05-07T01:52:53;4.80;;;4.20;;
4529;SDS011;2277;51.626;7.516;2023-05-07T01:55:19;6.10;;;4.23;;
4529;SDS011;2277;51.626;7.516;2023-05-07T01:57:45;6.20;;;4.33;;
4529;SDS011;2277;51.626;7.516;2023-05-07T02:00:10;4.83;;;3.70;;
4529;SDS011;2277;51.626;7.516;2023-05-07T02:02:36;4.00;;;3.53;;
4529;SDS011;2277;51.626;7.516;2023-05-07T02:05:03;5.07;;;4.20;;
4529;SDS011;2277;51.626;7.516;2023-05-07T02:07:29;6.03;;;5.47;;
4529;SDS011;2277;51.626;7.516;2023-05-07T02:09:55;4.50;;;3.63;;
4529;SDS011;2277;51.626;7.516;2023-05-07T02:12:21;4.23;;;3.83;;
4529;SDS011;2277;51.626;7.516;2023-05-07T02:14:47;6.60;;;4.17;;
4529;SDS011;2277;51.626;7.516;2023-05-07T02:17:12;4.87;;;4.03;;
4529;SDS011;2277;51.626;7.516;2023-05-07T02:19:38;4.67;;;4.27;;
4529;SDS011;2277;51.626;7.516;2023-05-07T02:22:04;4.97;;;4.40;;
4529;SDS011;2277;51.626;7.516;2023-05-07T02:24:29;7.23;;;4.90;;
4529;SDS011;2277;51.626;7.516;2023-05-07T02:26:55;8.90;;;4.80;;
4529;SDS011;2277;51.626;7.516;2023-05-07T02:29:20;7.40;;;4.20;;
4529;SDS011;2277;51.626;7.516;2023-05-07T02:31:46;3.80;;;3.43;;
4529;SDS011;2277;51.626;7.516;2023-05-07T02:34:15;4.47;;;4.03;;
4529;SDS011;2277;51.626;7.516;2023-05-07T02:36:41;4.50;;;3.50;;
4529;SDS011;2277;51.626;7.516;2023-05-07T02:39:07;6.80;;;5.30;;
4529;SDS011;2277;51.626;7.516;2023-05-07T02:41:32;7.20;;;4.87;;
4529;SDS011;2277;51.626;7.516;2023-05-07T02:43:58;6.20;;;4.17;;
4529;SDS011;2277;51.626;7.516;2023-05-07T02:46:24;3.93;;;3.60;;
4529;SDS011;2277;51.626;7.516;2023-05-07T02:48:49;5.40;;;4.37;;
4529;SDS011;2277;51.626;7.516;2023-05-07T02:51:16;5.17;;;4.13;;
4529;SDS011;2277;51.626;7.516;2023-05-07T02:53:45;5.30;;;4.80;;
4529;SDS011;2277;51.626;7.516;2023-05-07T02:56:11;5.47;;;4.73;;
4529;SDS011;2277;51.626;7.516;2023-05-07T02:58:36;6.73;;;3.87;;
4529;SDS011;2277;51.626;7.516;2023-05-07T03:01:04;3.13;;;2.83;;
4529;SDS011;2277;51.626;7.516;2023-05-07T03:03:30;7.73;;;5.43;;
4529;SDS011;2277;51.626;7.516;2023-05-07T03:05:56;4.40;;;4.00;;
4529;SDS011;2277;51.626;7.516;2023-05-07T03:08:22;9.40;;;5.27;;
4529;SDS011;2277;51.626;7.516;2023-05-07T03:10:47;4.00;;;3.60;;
4529;SDS011;2277;51.626;7.516;2023-05-07T03:13:13;4.47;;;3.80;;
4529;SDS011;2277;51.626;7.516;2023-05-07T03:15:38;4.20;;;2.87;;
4529;SDS011;2277;51.626;7.516;2023-05-07T03:18:04;3.50;;;2.93;;
4529;SDS011;2277;51.626;7.516;2023-05-07T03:20:30;4.43;;;3.53;;
4529;SDS011;2277;51.626;7.516;2023-05-07T03:22:56;5.43;;;4.07;;
4529;SDS011;2277;51.626;7.516;2023-05-07T03:25:21;3.60;;;3.30;;
4529;SDS011;2277;51.626;7.516;2023-05-07T03:27:47;3.30;;;3.00;;
4529;SDS011;2277;51.626;7.516;2023-05-07T03:30:12;4.37;;;3.20;;
4529;SDS011;2277;51.626;7.516;2023-05-07T03:32:38;4.27;;;3.40;;
4529;SDS011;2277;51.626;7.516;2023-05-07T03:35:04;7.30;;;3.47;;
4529;SDS011;2277;51.626;7.516;2023-05-07T03:37:29;3.23;;;2.90;;
4529;SDS011;2277;51.626;7.516;2023-05-07T03:39:55;3.90;;;3.50;;
4529;SDS011;2277;51.626;7.516;2023-05-07T03:42:21;3.20;;;2.37;;
4529;SDS011;2277;51.626;7.516;2023-05-07T03:44:46;4.80;;;4.40;;
4529;SDS011;2277;51.626;7.516;2023-05-07T03:47:12;3.43;;;3.13;;
4529;SDS011;2277;51.626;7.516;2023-05-07T03:49:38;5.07;;;2.73;;
4529;SDS011;2277;51.626;7.516;2023-05-07T03:52:04;3.03;;;2.83;;
4529;SDS011;2277;51.626;7.516;2023-05-07T03:54:30;3.73;;;3.00;;
4529;SDS011;2277;51.626;7.516;2023-05-07T03:56:56;3.20;;;2.87;;
4529;SDS011;2277;51.626;7.516;2023-05-07T03:59:22;4.40;;;2.93;;
4529;SDS011;2277;51.626;7.516;2023-05-07T04:01:47;4.47;;;4.07;;
4529;SDS011;2277;51.626;7.516;2023-05-07T04:04:13;4.87;;;3.10;;
4529;SDS011;2277;51.626;7.516;2023-05-07T04:06:39;4.40;;;3.43;;
4529;SDS011;2277;51.626;7.516;2023-05-07T04:09:06;5.00;;;4.00;;
4529;SDS011;2277;51.626;7.516;2023-05-07T04:11:31;3.83;;;2.90;;
4529;SDS011;2277;51.626;7.516;2023-05-07T04:13:57;4.30;;;3.90;;
4529;SDS011;2277;51.626;7.516;2023-05-07T04:16:23;5.20;;;4.60;;
4529;SDS011;2277;51.626;7.516;2023-05-07T04:18:48;4.03;;;3.23;;
4529;SDS011;2277;51.626;7.516;2023-05-07T04:21:18;4.60;;;3.67;;
4529;SDS011;2277;51.626;7.516;2023-05-07T04:23:45;5.43;;;3.40;;
4529;SDS011;2277;51.626;7.516;2023-05-07T04:26:12;3.67;;;2.90;;
4529;SDS011;2277;51.626;7.516;2023-05-07T04:28:38;3.73;;;3.10;;
4529;SDS011;2277;51.626;7.516;2023-05-07T04:31:04;6.87;;;3.20;;
4529;SDS011;2277;51.626;7.516;2023-05-07T04:33:30;7.27;;;3.20;;
4529;SDS011;2277;51.626;7.516;2023-05-07T04:35:56;4.83;;;3.63;;
4529;SDS011;2277;51.626;7.516;2023-05-07T04:38:22;4.43;;;3.20;;
4529;SDS011;2277;51.626;7.516;2023-05-07T04:40:48;4.17;;;3.50;;
4529;SDS011;2277;51.626;7.516;2023-05-07T04:43:14;5.10;;;4.50;;
4529;SDS011;2277;51.626;7.516;2023-05-07T04:45:40;4.73;;;3.53;;
4529;SDS011;2277;51.626;7.516;2023-05-07T04:48:06;7.00;;;4.80;;
4529;SDS011;2277;51.626;7.516;2023-05-07T04:50:33;3.73;;;3.30;;
4529;SDS011;2277;51.626;7.516;2023-05-07T04:52:59;5.87;;;3.90;;
4529;SDS011;2277;51.626;7.516;2023-05-07T04:55:24;4.53;;;3.47;;
4529;SDS011;2277;51.626;7.516;2023-05-07T04:57:50;4.07;;;3.57;;
4529;SDS011;2277;51.626;7.516;2023-05-07T05:00:16;4.53;;;4.13;;
4529;SDS011;2277;51.626;7.516;2023-05-07T05:02:44;6.40;;;3.70;;
4529;SDS011;2277;51.626;7.516;2023-05-07T05:05:10;5.83;;;3.67;;
4529;SDS011;2277;51.626;7.516;2023-05-07T05:07:36;9.40;;;4.63;;
4529;SDS011;2277;51.626;7.516;2023-05-07T05:10:02;5.70;;;4.50;;
4529;SDS011;2277;51.626;7.516;2023-05-07T05:12:28;5.70;;;4.83;;
4529;SDS011;2277;51.626;7.516;2023-05-07T05:14:55;6.53;;;4.20;;
4529;SDS011;2277;51.626;7.516;2023-05-07T05:17:20;7.97;;;5.23;;
4529;SDS011;2277;51.626;7.516;2023-05-07T05:19:46;9.40;;;4.70;;
4529;SDS011;2277;51.626;7.516;2023-05-07T05:22:12;6.90;;;4.63;;
4529;SDS011;2277;51.626;7.516;2023-05-07T05:24:37;5.37;;;4.33;;
4529;SDS011;2277;51.626;7.516;2023-05-07T05:27:03;5.20;;;4.40;;
4529;SDS011;2277;51.626;7.516;2023-05-07T05:29:29;4.67;;;4.23;;
4529;SDS011;2277;51.626;7.516;2023-05-07T05:31:56;17.17;;;5.47;;
4529;SDS011;2277;51.626;7.516;2023-05-07T05:34:22;8.80;;;4.83;;
4529;SDS011;2277;51.626;7.516;2023-05-07T05:36:47;5.37;;;3.60;;
4529;SDS011;2277;51.626;7.516;2023-05-07T05:39:13;6.00;;;4.63;;
4529;SDS011;2277;51.626;7.516;2023-05-07T05:41:39;6.40;;;5.70;;
4529;SDS011;2277;51.626;7.516;2023-05-07T05:44:05;8.87;;;6.83;;
4529;SDS011;2277;51.626;7.516;2023-05-07T05:46:30;5.77;;;5.00;;
4529;SDS011;2277;51.626;7.516;2023-05-07T05:48:56;7.03;;;4.40;;
4529;SDS011;2277;51.626;7.516;2023-05-07T05:51:22;7.00;;;4.30;;
4529;SDS011;2277;51.626;7.516;2023-05-07T05:53:48;9.63;;;5.77;;
4529;SDS011;2277;51.626;7.516;2023-05-07T05:56:13;5.17;;;4.63;;
4529;SDS011;2277;51.626;7.516;2023-05-07T05:58:40;7.07;;;5.00;;
4529;SDS011;2277;51.626;7.516;2023-05-07T06:01:06;6.97;;;4.63;;
4529;SDS011;2277;51.626;7.516;2023-05-07T06:03:31;7.20;;;4.83;;
4529;SDS011;2277;51.626;7.516;2023-05-07T06:05:57;6.23;;;4.30;;
4529;SDS011;2277;51.626;7.516;2023-05-07T06:08:23;7.83;;;5.13;;
4529;SDS011;2277;51.626;7.516;2023-05-07T06:10:49;7.67;;;5.20;;
4529;SDS011;2277;51.626;7.516;2023-05-07T06:13:14;5.53;;;4.70;;
4529;SDS011;2277;51.626;7.516;2023-05-07T06:15:40;12.20;;;6.00;;
4529;SDS011;2277;51.626;7.516;2023-05-07T06:18:06;10.97;;;5.60;;
4529;SDS011;2277;51.626;7.516;2023-05-07T06:20:31;8.33;;;7.27;;
4529;SDS011;2277;51.626;7.516;2023-05-07T06:22:57;6.67;;;5.30;;
4529;SDS011;2277;51.626;7.516;2023-05-07T06:25:22;6.23;;;5.00;;
4529;SDS011;2277;51.626;7.516;2023-05-07T06:27:48;8.23;;;5.00;;
4529;SDS011;2277;51.626;7.516;2023-05-07T06:30:13;8.90;;;5.50;;
4529;SDS011;2277;51.626;7.516;2023-05-07T06:32:40;11.77;;;5.57;;
4529;SDS011;2277;51.626;7.516;2023-05-07T06:35:05;10.53;;;5.77;;
4529;SDS011;2277;51.626;7.516;2023-05-07T06:37:31;6.53;;;5.93;;
4529;SDS011;2277;51.626;7.516;2023-05-07T06:39:57;7.27;;;5.10;;
4529;SDS011;2277;51.626;7.516;2023-05-07T06:42:22;7.60;;;5.90;;
4529;SDS011;2277;51.626;7.516;2023-05-07T06:44:48;15.73;;;5.87;;
4529;SDS011;2277;51.626;7.516;2023-05-07T06:47:13;9.30;;;6.07;;
4529;SDS011;2277;51.626;7.516;2023-05-07T06:49:39;9.53;;;7.03;;
4529;SDS011;2277;51.626;7.516;2023-05-07T06:52:05;8.63;;;6.57;;
4529;SDS011;2277;51.626;7.516;2023-05-07T06:54:30;7.93;;;6.27;;
4529;SDS011;2277;51.626;7.516;2023-05-07T06:56:56;12.87;;;7.70;;
4529;SDS011;2277;51.626;7.516;2023-05-07T06:59:22;8.40;;;6.10;;
4529;SDS011;2277;51.626;7.516;2023-05-07T07:01:48;8.47;;;6.77;;
4529;SDS011;2277;51.626;7.516;2023-05-07T07:04:14;8.17;;;5.57;;
4529;SDS011;2277;51.626;7.516;2023-05-07T07:06:39;9.77;;;6.90;;
4529;SDS011;2277;51.626;7.516;2023-05-07T07:09:05;8.93;;;7.00;;
4529;SDS011;2277;51.626;7.516;2023-05-07T07:11:30;8.77;;;6.27;;
4529;SDS011;2277;51.626;7.516;2023-05-07T07:13:56;8.00;;;6.37;;
4529;SDS011;2277;51.626;7.516;2023-05-07T07:16:22;11.80;;;7.07;;
4529;SDS011;2277;51.626;7.516;2023-05-07T07:18:47;11.47;;;8.40;;
4529;SDS011;2277;51.626;7.516;2023-05-07T07:21:13;7.33;;;6.27;;
4529;SDS011;2277;51.626;7.516;2023-05-07T07:23:38;7.93;;;7.13;;
4529;SDS011;2277;51.626;7.516;2023-05-07T07:26:04;9.93;;;7.47;;
4529;SDS011;2277;51.626;7.516;2023-05-07T07:28:31;13.93;;;7.67;;
4529;SDS011;2277;51.626;7.516;2023-05-07T07:30:57;7.93;;;6.53;;
4529;SDS011;2277;51.626;7.516;2023-05-07T07:33:22;9.23;;;8.23;;
4529;SDS011;2277;51.626;7.516;2023-05-07T07:35:48;11.77;;;6.40;;
4529;SDS011;2277;51.626;7.516;2023-05-07T07:38:13;7.27;;;5.87;;
4529;SDS011;2277;51.626;7.516;2023-05-07T07:40:39;10.10;;;6.23;;
4529;SDS011;2277;51.626;7.516;2023-05-07T07:43:05;13.23;;;7.90;;
4529;SDS011;2277;51.626;7.516;2023-05-07T07:45:31;7.27;;;5.57;;
4529;SDS011;2277;51.626;7.516;2023-05-07T07:47:56;7.70;;;6.97;;
4529;SDS011;2277;51.626;7.516;2023-05-07T07:50:22;10.20;;;6.13;;
4529;SDS011;2277;51.626;7.516;2023-05-07T07:52:48;10.90;;;7.70;;
4529;SDS011;2277;51.626;7.516;2023-05-07T07:55:13;13.80;;;6.90;;
4529;SDS011;2277;51.626;7.516;2023-05-07T07:57:43;7.60;;;6.10;;
4529;SDS011;2277;51.626;7.516;2023-05-07T08:00:08;11.53;;;7.13;;
4529;SDS011;2277;51.626;7.516;2023-05-07T08:02:34;10.63;;;6.57;;
4529;SDS011;2277;51.626;7.516;2023-05-07T08:05:00;9.57;;;7.27;;
4529;SDS011;2277;51.626;7.516;2023-05-07T08:07:25;8.50;;;5.70;;
4529;SDS011;2277;51.626;7.516;2023-05-07T08:09:51;7.23;;;6.57;;
4529;SDS011;2277;51.626;7.516;2023-05-07T08:12:17;7.70;;;7.00;;
4529;SDS011;2277;51.626;7.516;2023-05-07T08:14:43;7.63;;;5.70;;
4529;SDS011;2277;51.626;7.516;2023-05-07T08:17:08;9.03;;;5.97;;
4529;SDS011;2277;51.626;7.516;2023-05-07T08:19:35;10.10;;;5.97;;
4529;SDS011;2277;51.626;7.516;2023-05-07T08:22:00;15.93;;;8.37;;
4529;SDS011;2277;51.626;7.516;2023-05-07T08:24:27;6.33;;;5.67;;
4529;SDS011;2277;51.626;7.516;2023-05-07T08:26:52;14.00;;;7.40;;
4529;SDS011;2277;51.626;7.516;2023-05-07T08:29:18;10.30;;;6.60;;
4529;SDS011;2277;51.626;7.516;2023-05-07T08:31:43;14.07;;;8.97;;
4529;SDS011;2277;51.626;7.516;2023-05-07T08:34:09;10.53;;;8.27;;
4529;SDS011;2277;51.626;7.516;2023-05-07T08:36:34;8.90;;;6.50;;
4529;SDS011;2277;51.626;7.516;2023-05-07T08:39:00;8.57;;;5.90;;
4529;SDS011;2277;51.626;7.516;2023-05-07T08:41:26;10.63;;;5.67;;
4529;SDS011;2277;51.626;7.516;2023-05-07T08:43:51;10.00;;;6.90;;
4529;SDS011;2277;51.626;7.516;2023-05-07T08:46:19;9.80;;;5.97;;
4529;SDS011;2277;51.626;7.516;2023-05-07T08:48:48;8.80;;;7.17;;
4529;SDS011;2277;51.626;7.516;2023-05-07T08:51:16;8.33;;;5.83;;
4529;SDS011;2277;51.626;7.516;2023-05-07T08:53:44;7.63;;;6.23;;
4529;SDS011;2277;51.626;7.516;2023-05-07T08:56:10;7.87;;;5.17;;
4529;SDS011;2277;51.626;7.516;2023-05-07T08:58:37;7.13;;;6.00;;
4529;SDS011;2277;51.626;7.516;2023-05-07T09:01:13;9.33;;;5.77;;
4529;SDS011;2277;51.626;7.516;2023-05-07T09:03:39;10.40;;;5.57;;
4529;SDS011;2277;51.626;7.516;2023-05-07T09:06:05;12.87;;;7.07;;
4529;SDS011;2277;51.626;7.516;2023-05-07T09:08:34;8.60;;;5.73;;
4529;SDS011;2277;51.626;7.516;2023-05-07T09:11:01;9.10;;;5.73;;
4529;SDS011;2277;51.626;7.516;2023-05-07T09:13:27;12.40;;;6.83;;
4529;SDS011;2277;51.626;7.516;2023-05-07T09:15:53;9.43;;;5.83;;
4529;SDS011;2277;51.626;7.516;2023-05-07T09:18:19;6.23;;;5.63;;
4529;SDS011;2277;51.626;7.516;2023-05-07T09:20:45;6.53;;;4.97;;
4529;SDS011;2277;51.626;7.516;2023-05-07T09:23:10;11.60;;;6.20;;
4529;SDS011;2277;51.626;7.516;2023-05-07T09:25:36;11.40;;;6.00;;
4529;SDS011;2277;51.626;7.516;2023-05-07T09:28:02;8.00;;;5.20;;
4529;SDS011;2277;51.626;7.516;2023-05-07T09:30:30;32.97;;;6.23;;
4529;SDS011;2277;51.626;7.516;2023-05-07T09:33:00;6.10;;;4.70;;
4529;SDS011;2277;51.626;7.516;2023-05-07T09:35:27;9.60;;;6.67;;
4529;SDS011;2277;51.626;7.516;2023-05-07T09:37:53;6.60;;;5.27;;
4529;SDS011;2277;51.626;7.516;2023-05-07T09:40:21;11.93;;;8.60;;
4529;SDS011;2277;51.626;7.516;2023-05-07T09:42:48;7.17;;;6.27;;
4529;SDS011;2277;51.626;7.516;2023-05-07T09:45:15;9.20;;;5.77;;
4529;SDS011;2277;51.626;7.516;2023-05-07T09:47:42;6.80;;;5.07;;
4529;SDS011;2277;51.626;7.516;2023-05-07T09:50:12;6.77;;;5.13;;
4529;SDS011;2277;51.626;7.516;2023-05-07T09:52:40;8.10;;;7.00;;
4529;SDS011;2277;51.626;7.516;2023-05-07T09:55:07;6.27;;;5.67;;
4529;SDS011;2277;51.626;7.516;2023-05-07T09:57:33;8.43;;;5.53;;
4529;SDS011;2277;51.626;7.516;2023-05-07T10:00:00;10.67;;;5.80;;
4529;SDS011;2277;51.626;7.516;2023-05-07T10:02:29;11.03;;;6.30;;
4529;SDS011;2277;51.626;7.516;2023-05-07T10:04:56;11.13;;;6.80;;
4529;SDS011;2277;51.626;7.516;2023-05-07T10:07:25;12.23;;;8.00;;
4529;SDS011;2277;51.626;7.516;2023-05-07T10:09:51;11.30;;;6.97;;
4529;SDS011;2277;51.626;7.516;2023-05-07T10:12:18;8.80;;;6.33;;
4529;SDS011;2277;51.626;7.516;2023-05-07T10:14:44;7.53;;;5.50;;
4529;SDS011;2277;51.626;7.516;2023-05-07T10:17:11;6.47;;;5.13;;
4529;SDS011;2277;51.626;7.516;2023-05-07T10:19:37;8.53;;;5.67;;
4529;SDS011;2277;51.626;7.516;2023-05-07T10:22:05;8.53;;;5.83;;
4529;SDS011;2277;51.626;7.516;2023-05-07T10:24:35;9.00;;;6.40;;
4529;SDS011;2277;51.626;7.516;2023-05-07T10:27:03;10.30;;;6.53;;
4529;SDS011;2277;51.626;7.516;2023-05-07T10:29:37;8.97;;;7.83;;
4529;SDS011;2277;51.626;7.516;2023-05-07T10:35:02;8.10;;;4.93;;
4529;SDS011;2277;51.626;7.516;2023-05-07T10:37:31;6.97;;;5.80;;
4529;SDS011;2277;51.626;7.516;2023-05-07T10:39:57;10.00;;;6.50;;
4529;SDS011;2277;51.626;7.516;2023-05-07T10:42:23;8.03;;;5.73;;
4529;SDS011;2277;51.626;7.516;2023-05-07T10:44:49;11.17;;;8.33;;
4529;SDS011;2277;51.626;7.516;2023-05-07T10:47:15;8.60;;;4.60;;
4529;SDS011;2277;51.626;7.516;2023-05-07T10:52:18;10.53;;;8.50;;
4529;SDS011;2277;51.626;7.516;2023-05-07T10:54:46;8.80;;;5.97;;
4529;SDS011;2277;51.626;7.516;2023-05-07T11:00:03;9.83;;;6.90;;
4529;SDS011;2277;51.626;7.516;2023-05-07T11:05:31;7.50;;;6.37;;
4529;SDS011;2277;51.626;7.516;2023-05-07T11:07:58;6.83;;;4.90;;
4529;SDS011;2277;51.626;7.516;2023-05-07T11:13:15;9.93;;;6.10;;
4529;SDS011;2277;51.626;7.516;2023-05-07T11:15:42;9.87;;;6.67;;
4529;SDS011;2277;51.626;7.516;2023-05-07T11:18:12;7.63;;;5.97;;
4529;SDS011;2277;51.626;7.516;2023-05-07T11:20:56;9.90;;;7.30;;
4529;SDS011;2277;51.626;7.516;2023-05-07T11:26:03;6.17;;;5.57;;
4529;SDS011;2277;51.626;7.516;2023-05-07T11:28:30;10.60;;;6.20;;
4529;SDS011;2277;51.626;7.516;2023-05-07T11:31:01;6.97;;;5.50;;
4529;SDS011;2277;51.626;7.516;2023-05-07T11:33:27;7.60;;;5.50;;
4529;SDS011;2277;51.626;7.516;2023-05-07T11:35:54;5.83;;;5.13;;
4529;SDS011;2277;51.626;7.516;2023-05-07T11:38:19;8.50;;;5.50;;
4529;SDS011;2277;51.626;7.516;2023-05-07T11:40:49;7.60;;;4.27;;
4529;SDS011;2277;51.626;7.516;2023-05-07T11:43:20;8.00;;;5.60;;
4529;SDS011;2277;51.626;7.516;2023-05-07T11:45:46;4.30;;;3.80;;
4529;SDS011;2277;51.626;7.516;2023-05-07T11:48:12;3.83;;;3.27;;
4529;SDS011;2277;51.626;7.516;2023-05-07T11:50:49;5.53;;;3.50;;
4529;SDS011;2277;51.626;7.516;2023-05-07T11:53:17;4.23;;;3.27;;
4529;SDS011;2277;51.626;7.516;2023-05-07T11:55:44;5.60;;;4.60;;
4529;SDS011;2277;51.626;7.516;2023-05-07T11:58:10;7.17;;;5.10;;
4529;SDS011;2277;51.626;7.516;2023-05-07T12:00:37;6.43;;;4.90;;
4529;SDS011;2277;51.626;7.516;2023-05-07T12:03:03;6.93;;;4.40;;
4529;SDS011;2277;51.626;7.516;2023-05-07T12:05:30;4.60;;;3.93;;
4529;SDS011;2277;51.626;7.516;2023-05-07T12:07:56;4.80;;;3.90;;
4529;SDS011;2277;51.626;7.516;2023-05-07T12:10:22;6.83;;;5.20;;
4529;SDS011;2277;51.626;7.516;2023-05-07T12:12:49;4.53;;;4.13;;
4529;SDS011;2277;51.626;7.516;2023-05-07T12:15:15;7.50;;;3.40;;
4529;SDS011;2277;51.626;7.516;2023-05-07T12:17:42;6.73;;;3.77;;
4529;SDS011;2277;51.626;7.516;2023-05-07T12:20:08;5.70;;;4.03;;
4529;SDS011;2277;51.626;7.516;2023-05-07T12:22:34;9.23;;;5.37;;
4529;SDS011;2277;51.626;7.516;2023-05-07T12:25:00;3.50;;;3.13;;
4529;SDS011;2277;51.626;7.516;2023-05-07T12:27:27;4.77;;;3.57;;
4529;SDS011;2277;51.626;7.516;2023-05-07T12:29:53;7.10;;;4.07;;
4529;SDS011;2277;51.626;7.516;2023-05-07T12:32:21;6.40;;;3.93;;
4529;SDS011;2277;51.626;7.516;2023-05-07T12:34:49;7.60;;;3.30;;
4529;SDS011;2277;51.626;7.516;2023-05-07T12:37:15;3.17;;;2.87;;
4529;SDS011;2277;51.626;7.516;2023-05-07T12:39:47;4.93;;;4.07;;
4529;SDS011;2277;51.626;7.516;2023-05-07T12:42:14;6.53;;;4.03;;
4529;SDS011;2277;51.626;7.516;2023-05-07T12:44:41;2.93;;;2.60;;
4529;SDS011;2277;51.626;7.516;2023-05-07T12:47:10;1.70;;;1.60;;
4529;SDS011;2277;51.626;7.516;2023-05-07T12:49:35;3.77;;;3.47;;
4529;SDS011;2277;51.626;7.516;2023-05-07T12:52:05;4.33;;;3.60;;
4529;SDS011;2277;51.626;7.516;2023-05-07T12:54:31;4.53;;;3.83;;
4529;SDS011;2277;51.626;7.516;2023-05-07T12:57:04;9.10;;;4.50;;
4529;SDS011;2277;51.626;7.516;2023-05-07T12:59:40;2.70;;;2.40;;
4529;SDS011;2277;51.626;7.516;2023-05-07T13:02:07;13.40;;;5.13;;
4529;SDS011;2277;51.626;7.516;2023-05-07T13:04:33;6.27;;;3.00;;
4529;SDS011;2277;51.626;7.516;2023-05-07T13:07:00;4.93;;;3.27;;
4529;SDS011;2277;51.626;7.516;2023-05-07T13:09:26;6.50;;;3.37;;
4529;SDS011;2277;51.626;7.516;2023-05-07T13:11:55;5.60;;;3.90;;
4529;SDS011;2277;51.626;7.516;2023-05-07T13:14:20;3.53;;;3.23;;
4529;SDS011;2277;51.626;7.516;2023-05-07T13:16:49;5.03;;;4.30;;
4529;SDS011;2277;51.626;7.516;2023-05-07T13:19:15;5.13;;;3.53;;
4529;SDS011;2277;51.626;7.516;2023-05-07T13:21:40;5.17;;;3.10;;
4529;SDS011;2277;51.626;7.516;2023-05-07T13:24:06;5.40;;;3.90;;
4529;SDS011;2277;51.626;7.516;2023-05-07T13:26:32;6.50;;;3.83;;
4529;SDS011;2277;51.626;7.516;2023-05-07T13:28:58;6.10;;;4.37;;
4529;SDS011;2277;51.626;7.516;2023-05-07T13:31:24;2.93;;;2.37;;
4529;SDS011;2277;51.626;7.516;2023-05-07T13:33:49;4.13;;;2.73;;
4529;SDS011;2277;51.626;7.516;2023-05-07T13:36:15;3.73;;;3.10;;
4529;SDS011;2277;51.626;7.516;2023-05-07T13:38:41;6.70;;;5.10;;
4529;SDS011;2277;51.626;7.516;2023-05-07T13:41:06;5.43;;;3.83;;
4529;SDS011;2277;51.626;7.516;2023-05-07T13:43:32;4.53;;;2.87;;
4529;SDS011;2277;51.626;7.516;2023-05-07T13:45:58;3.40;;;3.10;;
4529;SDS011;2277;51.626;7.516;2023-05-07T13:48:25;4.17;;;3.13;;
4529;SDS011;2277;51.626;7.516;2023-05-07T13:50:50;3.77;;;3.37;;
4529;SDS011;2277;51.626;7.516;2023-05-07T13:53:16;5.47;;;3.17;;
4529;SDS011;2277;51.626;7.516;2023-05-07T13:55:43;4.90;;;3.33;;
4529;SDS011;2277;51.626;7.516;2023-05-07T13:58:09;4.23;;;3.00;;
4529;SDS011;2277;51.626;7.516;2023-05-07T14:00:35;2.70;;;2.50;;
4529;SDS011;2277;51.626;7.516;2023-05-07T14:03:01;6.33;;;3.47;;
4529;SDS011;2277;51.626;7.516;2023-05-07T14:05:26;3.10;;;2.77;;
4529;SDS011;2277;51.626;7.516;2023-05-07T14:07:53;5.07;;;3.93;;
4529;SDS011;2277;51.626;7.516;2023-05-07T14:10:29;7.77;;;3.60;;
4529;SDS011;2277;51.626;7.516;2023-05-07T14:12:55;4.30;;;3.90;;
4529;SDS011;2277;51.626;7.516;2023-05-07T14:15:21;3.60;;;3.07;;
4529;SDS011;2277;51.626;7.516;2023-05-07T14:17:46;3.77;;;3.33;;
4529;SDS011;2277;51.626;7.516;2023-05-07T14:20:12;4.50;;;4.10;;
4529;SDS011;2277;51.626;7.516;2023-05-07T14:22:37;4.40;;;3.10;;
4529;SDS011;2277;51.626;7.516;2023-05-07T14:25:03;3.20;;;2.90;;
4529;SDS011;2277;51.626;7.516;2023-05-07T14:27:29;3.27;;;2.97;;
4529;SDS011;2277;51.626;7.516;2023-05-07T14:29:55;3.97;;;3.57;;
4529;SDS011;2277;51.626;7.516;2023-05-07T14:32:21;4.17;;;3.50;;
4529;SDS011;2277;51.626;7.516;2023-05-07T14:34:46;5.37;;;4.03;;
4529;SDS011;2277;51.626;7.516;2023-05-07T14:37:12;4.10;;;2.80;;
4529;SDS011;2277;51.626;7.516;2023-05-07T14:39:38;3.30;;;3.00;;
4529;SDS011;2277;51.626;7.516;2023-05-07T14:42:04;7.63;;;5.47;;
4529;SDS011;2277;51.626;7.516;2023-05-07T14:44:30;6.37;;;4.53;;
4529;SDS011;2277;51.626;7.516;2023-05-07T14:46:56;3.40;;;3.10;;
4529;SDS011;2277;51.626;7.516;2023-05-07T14:49:22;5.30;;;2.63;;
4529;SDS011;2277;51.626;7.516;2023-05-07T14:51:47;3.00;;;2.60;;
4529;SDS011;2277;51.626;7.516;2023-05-07T14:54:13;4.13;;;3.17;;
4529;SDS011;2277;51.626;7.516;2023-05-07T14:56:39;4.87;;;3.60;;
4529;SDS011;2277;51.626;7.516;2023-05-07T14:59:06;6.83;;;3.20;;
4529;SDS011;2277;51.626;7.516;2023-05-07T15:01:32;5.33;;;4.80;;
4529;SDS011;2277;51.626;7.516;2023-05-07T15:03:59;4.13;;;2.93;;
4529;SDS011;2277;51.626;7.516;2023-05-07T15:06:25;5.93;;;4.10;;
4529;SDS011;2277;51.626;7.516;2023-05-07T15:08:51;5.07;;;3.00;;
4529;SDS011;2277;51.626;7.516;2023-05-07T15:11:17;5.60;;;4.20;;
4529;SDS011;2277;51.626;7.516;2023-05-07T15:13:42;4.97;;;3.53;;
4529;SDS011;2277;51.626;7.516;2023-05-07T15:16:08;4.20;;;3.70;;
4529;SDS011;2277;51.626;7.516;2023-05-07T15:18:34;8.73;;;4.93;;
4529;SDS011;2277;51.626;7.516;2023-05-07T15:20:59;6.40;;;3.50;;
4529;SDS011;2277;51.626;7.516;2023-05-07T15:23:25;4.13;;;3.73;;
4529;SDS011;2277;51.626;7.516;2023-05-07T15:25:51;3.73;;;3.43;;